sensor_id;sensor_type;location;lat;lon;timestamp;temperature;humidity
7576;DHT22;3829;50.798;4.358;2022-11-15T00:02:21;12.20;99.90
7576;DHT22;3829;50.798;4.358;2022-11-15T00:04:46;12.30;99.90
7576;DHT22;3829;50.798;4.358;2022-11-15T00:07:12;12.30;99.90
7576;DHT22;3829;50.798;4.358;2022-11-15T00:09:37;12.40;99.90
7576;DHT22;3829;50.798;4.358;2022-11-15T00:12:03;12.40;99.90
7576;DHT22;3829;50.798;4.358;2022-11-15T00:14:29;12.40;99.90
7576;DHT22;3829;50.798;4.358;2022-11-15T00:16:54;12.40;99.90
7576;DHT22;3829;50.798;4.358;2022-11-15T00:19:20;12.40;99.90
7576;DHT22;3829;50.798;4.358;2022-11-15T00:21:46;12.30;99.90
7576;DHT22;3829;50.798;4.358;2022-11-15T00:24:11;12.30;99.90
7576;DHT22;3829;50.798;4.358;2022-11-15T00:26:37;12.40;99.90
7576;DHT22;3829;50.798;4.358;2022-11-15T00:29:03;12.50;99.90
7576;DHT22;3829;50.798;4.358;2022-11-15T00:31:28;12.30;99.90
7576;DHT22;3829;50.798;4.358;2022-11-15T00:33:54;12.40;99.90
7576;DHT22;3829;50.798;4.358;2022-11-15T00:36:19;12.50;99.90
7576;DHT22;3829;50.798;4.358;2022-11-15T00:38:45;12.40;99.90
7576;DHT22;3829;50.798;4.358;2022-11-15T00:41:10;12.50;99.90
7576;DHT22;3829;50.798;4.358;2022-11-15T00:43:36;12.60;99.90
7576;DHT22;3829;50.798;4.358;2022-11-15T00:46:02;12.60;99.90
7576;DHT22;3829;50.798;4.358;2022-11-15T00:48:28;12.60;99.90
7576;DHT22;3829;50.798;4.358;2022-11-15T00:50:54;12.60;99.90
7576;DHT22;3829;50.798;4.358;2022-11-15T00:53:19;12.60;99.90
7576;DHT22;3829;50.798;4.358;2022-11-15T00:55:46;12.70;99.90
7576;DHT22;3829;50.798;4.358;2022-11-15T00:58:11;12.70;99.90
7576;DHT22;3829;50.798;4.358;2022-11-15T01:00:37;12.70;99.90
7576;DHT22;3829;50.798;4.358;2022-11-15T01:03:03;12.80;99.90
7576;DHT22;3829;50.798;4.358;2022-11-15T01:05:28;12.80;99.90
7576;DHT22;3829;50.798;4.358;2022-11-15T01:07:55;12.80;99.90
7576;DHT22;3829;50.798;4.358;2022-11-15T01:10:21;12.90;99.90
7576;DHT22;3829;50.798;4.358;2022-11-15T01:12:47;12.90;99.90
7576;DHT22;3829;50.798;4.358;2022-11-15T01:15:13;13.00;99.90
7576;DHT22;3829;50.798;4.358;2022-11-15T01:17:38;12.90;99.90
7576;DHT22;3829;50.798;4.358;2022-11-15T01:20:05;12.90;99.90
7576;DHT22;3829;50.798;4.358;2022-11-15T01:22:30;13.00;99.90
7576;DHT22;3829;50.798;4.358;2022-11-15T01:24:56;13.00;99.90
7576;DHT22;3829;50.798;4.358;2022-11-15T01:27:22;12.90;99.90
7576;DHT22;3829;50.798;4.358;2022-11-15T01:29:47;12.70;99.90
7576;DHT22;3829;50.798;4.358;2022-11-15T01:32:13;12.70;99.90
7576;DHT22;3829;50.798;4.358;2022-11-15T01:34:38;12.70;99.90
7576;DHT22;3829;50.798;4.358;2022-11-15T01:37:04;12.60;99.90
7576;DHT22;3829;50.798;4.358;2022-11-15T01:39:29;12.60;99.90
7576;DHT22;3829;50.798;4.358;2022-11-15T01:41:55;12.60;99.90
7576;DHT22;3829;50.798;4.358;2022-11-15T01:47:02;12.60;99.90
7576;DHT22;3829;50.798;4.358;2022-11-15T01:49:30;12.70;99.90
7576;DHT22;3829;50.798;4.358;2022-11-15T01:51:58;12.70;99.90
7576;DHT22;3829;50.798;4.358;2022-11-15T01:54:25;12.60;99.90
7576;DHT22;3829;50.798;4.358;2022-11-15T01:57:01;12.70;99.90
7576;DHT22;3829;50.798;4.358;2022-11-15T01:59:29;12.70;99.90
7576;DHT22;3829;50.798;4.358;2022-11-15T02:01:55;12.70;99.90
7576;DHT22;3829;50.798;4.358;2022-11-15T02:04:42;12.70;99.90
7576;DHT22;3829;50.798;4.358;2022-11-15T02:07:10;12.80;99.90
7576;DHT22;3829;50.798;4.358;2022-11-15T02:09:37;12.90;99.90
7576;DHT22;3829;50.798;4.358;2022-11-15T02:12:03;12.70;99.90
7576;DHT22;3829;50.798;4.358;2022-11-15T02:14:31;12.70;99.90
7576;DHT22;3829;50.798;4.358;2022-11-15T02:23:08;12.70;99.90
7576;DHT22;3829;50.798;4.358;2022-11-15T02:34:51;12.60;99.90
7576;DHT22;3829;50.798;4.358;2022-11-15T02:37:34;12.60;99.90
7576;DHT22;3829;50.798;4.358;2022-11-15T02:42:59;12.70;99.90
7576;DHT22;3829;50.798;4.358;2022-11-15T02:45:53;12.70;99.90
7576;DHT22;3829;50.798;4.358;2022-11-15T02:48:22;12.60;99.90
7576;DHT22;3829;50.798;4.358;2022-11-15T02:50:49;12.60;99.90
7576;DHT22;3829;50.798;4.358;2022-11-15T02:53:15;12.60;99.90
7576;DHT22;3829;50.798;4.358;2022-11-15T02:55:46;12.70;99.90
7576;DHT22;3829;50.798;4.358;2022-11-15T02:58:44;12.70;99.90
7576;DHT22;3829;50.798;4.358;2022-11-15T03:04:50;12.80;99.90
7576;DHT22;3829;50.798;4.358;2022-11-15T03:06:50;12.80;99.90
7576;DHT22;3829;50.798;4.358;2022-11-15T03:09:47;12.80;99.90
7576;DHT22;3829;50.798;4.358;2022-11-15T03:14:58;12.70;99.90
7576;DHT22;3829;50.798;4.358;2022-11-15T03:17:33;12.80;99.90
7576;DHT22;3829;50.798;4.358;2022-11-15T03:20:04;12.70;99.90
7576;DHT22;3829;50.798;4.358;2022-11-15T03:22:34;12.70;99.90
7576;DHT22;3829;50.798;4.358;2022-11-15T03:25:05;12.70;99.90
7576;DHT22;3829;50.798;4.358;2022-11-15T03:27:36;12.60;99.90
7576;DHT22;3829;50.798;4.358;2022-11-15T03:30:06;12.60;99.90
7576;DHT22;3829;50.798;4.358;2022-11-15T03:32:46;12.50;99.90
7576;DHT22;3829;50.798;4.358;2022-11-15T03:35:15;12.50;99.90
7576;DHT22;3829;50.798;4.358;2022-11-15T03:41:03;12.50;99.90
7576;DHT22;3829;50.798;4.358;2022-11-15T03:43:56;12.40;99.90
7576;DHT22;3829;50.798;4.358;2022-11-15T03:46:44;12.30;99.90
7576;DHT22;3829;50.798;4.358;2022-11-15T03:49:36;12.30;99.90
7576;DHT22;3829;50.798;4.358;2022-11-15T03:52:02;12.30;99.90
7576;DHT22;3829;50.798;4.358;2022-11-15T03:54:29;12.20;99.90
7576;DHT22;3829;50.798;4.358;2022-11-15T03:56:54;12.20;99.90
7576;DHT22;3829;50.798;4.358;2022-11-15T03:59:20;12.20;99.90
7576;DHT22;3829;50.798;4.358;2022-11-15T04:01:46;12.20;99.90
7576;DHT22;3829;50.798;4.358;2022-11-15T04:04:11;12.20;99.90
7576;DHT22;3829;50.798;4.358;2022-11-15T04:06:37;12.20;99.90
7576;DHT22;3829;50.798;4.358;2022-11-15T04:09:03;12.20;99.90
7576;DHT22;3829;50.798;4.358;2022-11-15T04:11:29;12.10;99.90
7576;DHT22;3829;50.798;4.358;2022-11-15T04:13:54;12.10;99.90
7576;DHT22;3829;50.798;4.358;2022-11-15T04:16:20;12.10;99.90
7576;DHT22;3829;50.798;4.358;2022-11-15T04:18:45;12.20;99.90
7576;DHT22;3829;50.798;4.358;2022-11-15T04:21:31;12.20;99.90
7576;DHT22;3829;50.798;4.358;2022-11-15T04:24:15;12.10;99.90
7576;DHT22;3829;50.798;4.358;2022-11-15T04:26:40;12.00;99.90
7576;DHT22;3829;50.798;4.358;2022-11-15T04:29:06;12.10;99.90
7576;DHT22;3829;50.798;4.358;2022-11-15T04:31:50;12.10;99.90
7576;DHT22;3829;50.798;4.358;2022-11-15T04:34:16;12.10;99.90
7576;DHT22;3829;50.798;4.358;2022-11-15T04:36:41;12.10;99.90
7576;DHT22;3829;50.798;4.358;2022-11-15T04:39:25;12.10;99.90
7576;DHT22;3829;50.798;4.358;2022-11-15T04:41:51;12.00;99.90
7576;DHT22;3829;50.798;4.358;2022-11-15T04:44:16;12.00;99.90
7576;DHT22;3829;50.798;4.358;2022-11-15T04:46:42;11.90;99.90
7576;DHT22;3829;50.798;4.358;2022-11-15T04:49:07;11.80;99.90
7576;DHT22;3829;50.798;4.358;2022-11-15T04:51:33;11.70;99.90
7576;DHT22;3829;50.798;4.358;2022-11-15T04:53:58;11.70;99.90
7576;DHT22;3829;50.798;4.358;2022-11-15T04:56:24;11.70;99.90
7576;DHT22;3829;50.798;4.358;2022-11-15T04:58:50;11.60;99.90
7576;DHT22;3829;50.798;4.358;2022-11-15T05:01:15;11.60;99.90
7576;DHT22;3829;50.798;4.358;2022-11-15T05:03:42;11.40;99.90
7576;DHT22;3829;50.798;4.358;2022-11-15T05:06:26;11.30;99.90
7576;DHT22;3829;50.798;4.358;2022-11-15T05:08:52;11.40;99.90
7576;DHT22;3829;50.798;4.358;2022-11-15T05:11:17;11.30;99.90
7576;DHT22;3829;50.798;4.358;2022-11-15T05:13:43;11.20;99.90
7576;DHT22;3829;50.798;4.358;2022-11-15T05:16:09;11.20;99.90
7576;DHT22;3829;50.798;4.358;2022-11-15T05:18:35;11.00;99.90
7576;DHT22;3829;50.798;4.358;2022-11-15T05:21:09;10.90;99.90
7576;DHT22;3829;50.798;4.358;2022-11-15T05:23:35;10.80;99.90
7576;DHT22;3829;50.798;4.358;2022-11-15T05:26:02;10.80;99.90
7576;DHT22;3829;50.798;4.358;2022-11-15T05:28:28;10.70;99.90
7576;DHT22;3829;50.798;4.358;2022-11-15T05:31:00;10.70;99.90
7576;DHT22;3829;50.798;4.358;2022-11-15T05:33:26;10.60;99.90
7576;DHT22;3829;50.798;4.358;2022-11-15T05:36:04;10.60;99.90
7576;DHT22;3829;50.798;4.358;2022-11-15T05:38:30;10.50;99.90
7576;DHT22;3829;50.798;4.358;2022-11-15T05:40:57;10.40;99.90
7576;DHT22;3829;50.798;4.358;2022-11-15T05:43:23;10.30;99.90
7576;DHT22;3829;50.798;4.358;2022-11-15T05:45:49;10.30;99.90
7576;DHT22;3829;50.798;4.358;2022-11-15T05:48:14;10.20;99.90
7576;DHT22;3829;50.798;4.358;2022-11-15T05:50:44;10.10;99.90
7576;DHT22;3829;50.798;4.358;2022-11-15T05:53:12;10.20;99.90
7576;DHT22;3829;50.798;4.358;2022-11-15T05:55:40;10.20;99.90
7576;DHT22;3829;50.798;4.358;2022-11-15T05:58:06;10.30;99.90
7576;DHT22;3829;50.798;4.358;2022-11-15T06:00:32;10.30;99.90
7576;DHT22;3829;50.798;4.358;2022-11-15T06:02:57;10.30;99.90
7576;DHT22;3829;50.798;4.358;2022-11-15T06:05:23;10.30;99.90
7576;DHT22;3829;50.798;4.358;2022-11-15T06:07:49;10.10;99.90
7576;DHT22;3829;50.798;4.358;2022-11-15T06:10:15;10.10;99.90
7576;DHT22;3829;50.798;4.358;2022-11-15T06:12:40;10.10;99.90
7576;DHT22;3829;50.798;4.358;2022-11-15T06:15:06;10.00;99.90
7576;DHT22;3829;50.798;4.358;2022-11-15T06:17:32;10.00;99.90
7576;DHT22;3829;50.798;4.358;2022-11-15T06:19:57;10.00;99.90
7576;DHT22;3829;50.798;4.358;2022-11-15T06:22:23;9.90;99.90
7576;DHT22;3829;50.798;4.358;2022-11-15T06:24:48;9.80;99.90
7576;DHT22;3829;50.798;4.358;2022-11-15T06:27:14;9.80;99.90
7576;DHT22;3829;50.798;4.358;2022-11-15T06:29:40;9.80;99.90
7576;DHT22;3829;50.798;4.358;2022-11-15T06:32:05;9.80;99.90
7576;DHT22;3829;50.798;4.358;2022-11-15T06:34:31;9.90;99.90
7576;DHT22;3829;50.798;4.358;2022-11-15T06:36:56;9.70;99.90
7576;DHT22;3829;50.798;4.358;2022-11-15T06:39:22;9.80;99.90
7576;DHT22;3829;50.798;4.358;2022-11-15T06:41:47;9.80;99.90
7576;DHT22;3829;50.798;4.358;2022-11-15T06:44:13;9.70;99.90
7576;DHT22;3829;50.798;4.358;2022-11-15T06:46:39;9.60;99.90
7576;DHT22;3829;50.798;4.358;2022-11-15T06:49:04;9.60;99.90
7576;DHT22;3829;50.798;4.358;2022-11-15T06:51:30;9.60;99.90
7576;DHT22;3829;50.798;4.358;2022-11-15T06:53:55;9.60;99.90
7576;DHT22;3829;50.798;4.358;2022-11-15T06:56:21;9.50;99.90
7576;DHT22;3829;50.798;4.358;2022-11-15T06:58:46;9.50;99.90
7576;DHT22;3829;50.798;4.358;2022-11-15T07:01:12;9.60;99.90
7576;DHT22;3829;50.798;4.358;2022-11-15T07:03:40;9.60;99.90
7576;DHT22;3829;50.798;4.358;2022-11-15T07:06:07;9.60;99.90
7576;DHT22;3829;50.798;4.358;2022-11-15T07:08:33;9.50;99.90
7576;DHT22;3829;50.798;4.358;2022-11-15T07:11:04;9.50;99.90
7576;DHT22;3829;50.798;4.358;2022-11-15T07:13:31;9.50;99.90
7576;DHT22;3829;50.798;4.358;2022-11-15T07:16:05;9.50;99.90
7576;DHT22;3829;50.798;4.358;2022-11-15T07:18:36;9.50;99.90
7576;DHT22;3829;50.798;4.358;2022-11-15T07:21:04;9.50;99.90
7576;DHT22;3829;50.798;4.358;2022-11-15T07:23:30;9.50;99.90
7576;DHT22;3829;50.798;4.358;2022-11-15T07:25:59;9.50;99.90
7576;DHT22;3829;50.798;4.358;2022-11-15T07:28:27;9.50;99.90
7576;DHT22;3829;50.798;4.358;2022-11-15T07:30:53;9.50;99.90
7576;DHT22;3829;50.798;4.358;2022-11-15T07:33:19;9.50;99.90
7576;DHT22;3829;50.798;4.358;2022-11-15T07:35:44;9.50;99.90
7576;DHT22;3829;50.798;4.358;2022-11-15T07:38:13;9.50;99.90
7576;DHT22;3829;50.798;4.358;2022-11-15T07:40:40;9.60;99.90
7576;DHT22;3829;50.798;4.358;2022-11-15T07:43:07;9.60;99.90
7576;DHT22;3829;50.798;4.358;2022-11-15T07:45:33;9.50;99.90
7576;DHT22;3829;50.798;4.358;2022-11-15T07:47:59;9.50;99.90
7576;DHT22;3829;50.798;4.358;2022-11-15T07:50:26;9.50;99.90
7576;DHT22;3829;50.798;4.358;2022-11-15T07:52:56;9.60;99.90
7576;DHT22;3829;50.798;4.358;2022-11-15T07:55:23;9.60;99.90
7576;DHT22;3829;50.798;4.358;2022-11-15T07:57:49;9.70;99.90
7576;DHT22;3829;50.798;4.358;2022-11-15T08:00:15;9.70;99.90
7576;DHT22;3829;50.798;4.358;2022-11-15T08:02:40;9.80;99.90
7576;DHT22;3829;50.798;4.358;2022-11-15T08:05:06;9.80;99.90
7576;DHT22;3829;50.798;4.358;2022-11-15T08:07:32;9.90;99.90
7576;DHT22;3829;50.798;4.358;2022-11-15T08:09:58;9.80;99.90
7576;DHT22;3829;50.798;4.358;2022-11-15T08:12:24;9.90;99.90
7576;DHT22;3829;50.798;4.358;2022-11-15T08:14:50;9.90;99.90
7576;DHT22;3829;50.798;4.358;2022-11-15T08:17:15;9.90;99.90
7576;DHT22;3829;50.798;4.358;2022-11-15T08:19:41;10.00;99.90
7576;DHT22;3829;50.798;4.358;2022-11-15T08:22:07;9.90;99.90
7576;DHT22;3829;50.798;4.358;2022-11-15T08:24:33;10.00;99.90
7576;DHT22;3829;50.798;4.358;2022-11-15T08:26:59;10.00;99.90
7576;DHT22;3829;50.798;4.358;2022-11-15T08:29:24;10.00;99.90
7576;DHT22;3829;50.798;4.358;2022-11-15T08:31:50;10.10;99.90
7576;DHT22;3829;50.798;4.358;2022-11-15T08:34:16;10.10;99.90
7576;DHT22;3829;50.798;4.358;2022-11-15T08:36:42;10.10;99.90
7576;DHT22;3829;50.798;4.358;2022-11-15T08:39:10;10.10;99.90
7576;DHT22;3829;50.798;4.358;2022-11-15T08:41:38;10.20;99.90
7576;DHT22;3829;50.798;4.358;2022-11-15T08:44:04;10.20;99.90
7576;DHT22;3829;50.798;4.358;2022-11-15T08:46:29;10.20;99.90
7576;DHT22;3829;50.798;4.358;2022-11-15T08:48:55;10.30;99.90
7576;DHT22;3829;50.798;4.358;2022-11-15T08:51:21;10.30;99.90
7576;DHT22;3829;50.798;4.358;2022-11-15T08:53:46;10.30;99.90
7576;DHT22;3829;50.798;4.358;2022-11-15T08:56:13;10.30;99.90
7576;DHT22;3829;50.798;4.358;2022-11-15T08:58:39;10.40;99.90
7576;DHT22;3829;50.798;4.358;2022-11-15T09:01:06;10.40;99.90
7576;DHT22;3829;50.798;4.358;2022-11-15T09:03:31;10.60;99.90
7576;DHT22;3829;50.798;4.358;2022-11-15T09:05:59;10.80;99.90
7576;DHT22;3829;50.798;4.358;2022-11-15T09:08:29;10.80;99.90
7576;DHT22;3829;50.798;4.358;2022-11-15T09:10:55;10.90;99.90
7576;DHT22;3829;50.798;4.358;2022-11-15T09:13:21;10.90;99.90
7576;DHT22;3829;50.798;4.358;2022-11-15T09:15:47;10.80;99.90
7576;DHT22;3829;50.798;4.358;2022-11-15T09:18:12;10.80;99.90
7576;DHT22;3829;50.798;4.358;2022-11-15T09:20:38;10.90;99.90
7576;DHT22;3829;50.798;4.358;2022-11-15T09:23:04;10.90;99.90
7576;DHT22;3829;50.798;4.358;2022-11-15T09:25:31;10.90;99.90
7576;DHT22;3829;50.798;4.358;2022-11-15T09:27:56;11.00;99.90
7576;DHT22;3829;50.798;4.358;2022-11-15T09:30:23;11.00;99.90
7576;DHT22;3829;50.798;4.358;2022-11-15T09:32:49;11.10;99.90
7576;DHT22;3829;50.798;4.358;2022-11-15T09:35:14;11.20;99.90
7576;DHT22;3829;50.798;4.358;2022-11-15T09:37:40;11.30;99.90
7576;DHT22;3829;50.798;4.358;2022-11-15T09:40:13;11.30;99.90
7576;DHT22;3829;50.798;4.358;2022-11-15T09:51:03;11.40;99.90
7576;DHT22;3829;50.798;4.358;2022-11-15T09:53:37;11.50;99.90
7576;DHT22;3829;50.798;4.358;2022-11-15T09:56:20;11.60;99.90
7576;DHT22;3829;50.798;4.358;2022-11-15T10:02:13;11.60;99.90
7576;DHT22;3829;50.798;4.358;2022-11-15T10:04:41;11.60;99.90
7576;DHT22;3829;50.798;4.358;2022-11-15T10:12:11;11.60;99.90
7576;DHT22;3829;50.798;4.358;2022-11-15T10:14:38;11.70;99.90
7576;DHT22;3829;50.798;4.358;2022-11-15T10:20:10;11.80;99.90
7576;DHT22;3829;50.798;4.358;2022-11-15T10:22:41;12.00;99.90
7576;DHT22;3829;50.798;4.358;2022-11-15T10:25:11;12.10;99.90
7576;DHT22;3829;50.798;4.358;2022-11-15T10:27:40;12.10;99.90
7576;DHT22;3829;50.798;4.358;2022-11-15T10:30:13;12.20;99.90
7576;DHT22;3829;50.798;4.358;2022-11-15T10:32:40;12.20;99.90
7576;DHT22;3829;50.798;4.358;2022-11-15T10:35:27;12.30;99.90
7576;DHT22;3829;50.798;4.358;2022-11-15T10:38:06;12.50;99.90
7576;DHT22;3829;50.798;4.358;2022-11-15T10:40:32;12.50;99.90
7576;DHT22;3829;50.798;4.358;2022-11-15T10:43:17;12.40;99.90
7576;DHT22;3829;50.798;4.358;2022-11-15T10:45:44;12.40;99.90
7576;DHT22;3829;50.798;4.358;2022-11-15T10:50:40;12.60;99.90
7576;DHT22;3829;50.798;4.358;2022-11-15T10:55:51;12.90;99.90
7576;DHT22;3829;50.798;4.358;2022-11-15T10:58:39;12.90;99.90
7576;DHT22;3829;50.798;4.358;2022-11-15T11:01:14;12.80;99.90
7576;DHT22;3829;50.798;4.358;2022-11-15T11:03:41;12.80;99.90
7576;DHT22;3829;50.798;4.358;2022-11-15T11:06:25;12.50;99.90
7576;DHT22;3829;50.798;4.358;2022-11-15T11:08:59;12.40;99.90
7576;DHT22;3829;50.798;4.358;2022-11-15T11:11:47;12.60;99.90
7576;DHT22;3829;50.798;4.358;2022-11-15T11:14:26;12.80;99.90
7576;DHT22;3829;50.798;4.358;2022-11-15T11:30:36;13.20;99.90
7576;DHT22;3829;50.798;4.358;2022-11-15T11:33:16;13.40;99.90
7576;DHT22;3829;50.798;4.358;2022-11-15T11:41:27;13.30;99.90
7576;DHT22;3829;50.798;4.358;2022-11-15T11:47:00;13.40;99.90
7576;DHT22;3829;50.798;4.358;2022-11-15T11:49:51;13.50;99.90
7576;DHT22;3829;50.798;4.358;2022-11-15T11:52:41;13.30;99.90
7576;DHT22;3829;50.798;4.358;2022-11-15T11:55:29;13.30;99.90
7576;DHT22;3829;50.798;4.358;2022-11-15T11:58:35;13.30;99.90
7576;DHT22;3829;50.798;4.358;2022-11-15T12:01:05;13.40;99.90
7576;DHT22;3829;50.798;4.358;2022-11-15T12:03:45;13.50;99.90
7576;DHT22;3829;50.798;4.358;2022-11-15T12:08:54;13.50;99.90
7576;DHT22;3829;50.798;4.358;2022-11-15T12:14:35;13.60;99.90
7576;DHT22;3829;50.798;4.358;2022-11-15T12:17:03;13.30;99.90
7576;DHT22;3829;50.798;4.358;2022-11-15T12:19:29;13.40;99.90
7576;DHT22;3829;50.798;4.358;2022-11-15T12:25:03;13.40;99.90
7576;DHT22;3829;50.798;4.358;2022-11-15T12:29:59;13.50;99.90
7576;DHT22;3829;50.798;4.358;2022-11-15T12:32:29;13.50;99.90
7576;DHT22;3829;50.798;4.358;2022-11-15T12:34:57;13.50;99.90
7576;DHT22;3829;50.798;4.358;2022-11-15T12:40:04;13.70;99.90
7576;DHT22;3829;50.798;4.358;2022-11-15T12:44:57;13.60;99.90
7576;DHT22;3829;50.798;4.358;2022-11-15T12:47:26;13.50;99.90
7576;DHT22;3829;50.798;4.358;2022-11-15T12:49:52;13.70;99.90
7576;DHT22;3829;50.798;4.358;2022-11-15T12:52:18;13.80;99.90
7576;DHT22;3829;50.798;4.358;2022-11-15T12:54:55;13.70;99.90
7576;DHT22;3829;50.798;4.358;2022-11-15T12:57:32;13.70;99.90
7576;DHT22;3829;50.798;4.358;2022-11-15T13:02:43;13.80;99.90
7576;DHT22;3829;50.798;4.358;2022-11-15T13:20:15;13.70;99.90
7576;DHT22;3829;50.798;4.358;2022-11-15T13:22:43;13.70;99.90
7576;DHT22;3829;50.798;4.358;2022-11-15T13:28:00;13.50;99.90
7576;DHT22;3829;50.798;4.358;2022-11-15T13:30:30;13.60;99.90
7576;DHT22;3829;50.798;4.358;2022-11-15T13:32:58;13.50;99.90
7576;DHT22;3829;50.798;4.358;2022-11-15T13:35:26;13.50;99.90
7576;DHT22;3829;50.798;4.358;2022-11-15T13:37:54;13.40;99.90
7576;DHT22;3829;50.798;4.358;2022-11-15T13:40:27;13.40;99.90
7576;DHT22;3829;50.798;4.358;2022-11-15T13:42:56;13.50;99.90
7576;DHT22;3829;50.798;4.358;2022-11-15T13:45:21;13.60;99.90
7576;DHT22;3829;50.798;4.358;2022-11-15T13:47:57;13.60;99.90
7576;DHT22;3829;50.798;4.358;2022-11-15T13:50:34;13.60;99.90
7576;DHT22;3829;50.798;4.358;2022-11-15T13:53:03;13.70;99.90
7576;DHT22;3829;50.798;4.358;2022-11-15T13:55:31;13.70;99.90
7576;DHT22;3829;50.798;4.358;2022-11-15T13:58:00;13.70;99.90
7576;DHT22;3829;50.798;4.358;2022-11-15T14:00:39;13.80;99.90
7576;DHT22;3829;50.798;4.358;2022-11-15T14:03:27;13.60;99.90
7576;DHT22;3829;50.798;4.358;2022-11-15T14:06:10;13.60;99.90
7576;DHT22;3829;50.798;4.358;2022-11-15T14:11:27;13.70;99.90
7576;DHT22;3829;50.798;4.358;2022-11-15T14:16:45;13.60;99.90
7576;DHT22;3829;50.798;4.358;2022-11-15T14:19:32;13.50;99.90
7576;DHT22;3829;50.798;4.358;2022-11-15T14:27:28;13.40;99.90
7576;DHT22;3829;50.798;4.358;2022-11-15T14:29:54;13.40;99.90
7576;DHT22;3829;50.798;4.358;2022-11-15T14:32:23;13.20;99.90
7576;DHT22;3829;50.798;4.358;2022-11-15T14:34:55;13.20;99.90
7576;DHT22;3829;50.798;4.358;2022-11-15T14:37:33;13.10;99.90
7576;DHT22;3829;50.798;4.358;2022-11-15T14:40:01;12.90;99.90
7576;DHT22;3829;50.798;4.358;2022-11-15T14:42:28;12.80;99.90
7576;DHT22;3829;50.798;4.358;2022-11-15T14:44:54;12.80;99.90
7576;DHT22;3829;50.798;4.358;2022-11-15T14:47:19;12.80;99.90
7576;DHT22;3829;50.798;4.358;2022-11-15T14:49:45;12.90;99.90
7576;DHT22;3829;50.798;4.358;2022-11-15T14:52:31;12.70;99.90
7576;DHT22;3829;50.798;4.358;2022-11-15T14:55:02;12.80;99.90
7576;DHT22;3829;50.798;4.358;2022-11-15T14:57:28;12.80;99.90
7576;DHT22;3829;50.798;4.358;2022-11-15T14:59:54;12.70;99.90
7576;DHT22;3829;50.798;4.358;2022-11-15T15:02:22;12.70;99.90
7576;DHT22;3829;50.798;4.358;2022-11-15T15:04:48;12.70;99.90
7576;DHT22;3829;50.798;4.358;2022-11-15T15:07:14;12.70;99.90
7576;DHT22;3829;50.798;4.358;2022-11-15T15:09:41;12.70;99.90
7576;DHT22;3829;50.798;4.358;2022-11-15T15:12:18;12.60;99.90
7576;DHT22;3829;50.798;4.358;2022-11-15T15:14:45;12.60;99.90
7576;DHT22;3829;50.798;4.358;2022-11-15T15:17:12;12.60;99.90
7576;DHT22;3829;50.798;4.358;2022-11-15T15:19:37;12.50;99.90
7576;DHT22;3829;50.798;4.358;2022-11-15T15:22:03;12.50;99.90
7576;DHT22;3829;50.798;4.358;2022-11-15T15:24:30;12.60;99.90
7576;DHT22;3829;50.798;4.358;2022-11-15T15:26:56;12.50;99.90
7576;DHT22;3829;50.798;4.358;2022-11-15T15:29:22;12.40;99.90
7576;DHT22;3829;50.798;4.358;2022-11-15T15:31:47;12.40;99.90
7576;DHT22;3829;50.798;4.358;2022-11-15T15:34:13;12.40;99.90
7576;DHT22;3829;50.798;4.358;2022-11-15T15:36:38;12.40;99.90
7576;DHT22;3829;50.798;4.358;2022-11-15T15:39:04;12.40;99.90
7576;DHT22;3829;50.798;4.358;2022-11-15T15:41:29;12.30;99.90
7576;DHT22;3829;50.798;4.358;2022-11-15T15:43:55;12.30;99.90
7576;DHT22;3829;50.798;4.358;2022-11-15T15:46:20;12.40;99.90
7576;DHT22;3829;50.798;4.358;2022-11-15T15:48:46;12.30;99.90
7576;DHT22;3829;50.798;4.358;2022-11-15T15:51:12;12.30;99.90
7576;DHT22;3829;50.798;4.358;2022-11-15T15:53:38;12.30;99.90
7576;DHT22;3829;50.798;4.358;2022-11-15T15:56:05;12.30;99.90
7576;DHT22;3829;50.798;4.358;2022-11-15T15:58:33;12.40;99.90
7576;DHT22;3829;50.798;4.358;2022-11-15T16:00:59;12.30;99.90
7576;DHT22;3829;50.798;4.358;2022-11-15T16:03:25;12.30;99.90
7576;DHT22;3829;50.798;4.358;2022-11-15T16:05:50;12.20;99.90
7576;DHT22;3829;50.798;4.358;2022-11-15T16:08:24;12.30;99.90
7576;DHT22;3829;50.798;4.358;2022-11-15T16:10:50;12.30;99.90
7576;DHT22;3829;50.798;4.358;2022-11-15T16:13:16;12.20;99.90
7576;DHT22;3829;50.798;4.358;2022-11-15T16:15:43;12.30;99.90
7576;DHT22;3829;50.798;4.358;2022-11-15T16:18:14;12.20;99.90
7576;DHT22;3829;50.798;4.358;2022-11-15T16:20:45;12.20;99.90
7576;DHT22;3829;50.798;4.358;2022-11-15T16:23:17;12.20;99.90
7576;DHT22;3829;50.798;4.358;2022-11-15T16:25:49;12.30;99.90
7576;DHT22;3829;50.798;4.358;2022-11-15T16:28:26;12.20;99.90
7576;DHT22;3829;50.798;4.358;2022-11-15T16:31:04;12.20;99.90
7576;DHT22;3829;50.798;4.358;2022-11-15T16:33:31;12.20;99.90
7576;DHT22;3829;50.798;4.358;2022-11-15T16:35:56;12.20;99.90
7576;DHT22;3829;50.798;4.358;2022-11-15T16:38:22;12.20;99.90
7576;DHT22;3829;50.798;4.358;2022-11-15T16:40:48;12.20;99.90
7576;DHT22;3829;50.798;4.358;2022-11-15T16:43:13;12.20;99.90
7576;DHT22;3829;50.798;4.358;2022-11-15T16:45:39;12.30;99.90
7576;DHT22;3829;50.798;4.358;2022-11-15T16:48:05;12.30;99.90
7576;DHT22;3829;50.798;4.358;2022-11-15T16:50:33;12.30;99.90
7576;DHT22;3829;50.798;4.358;2022-11-15T16:53:04;12.30;99.90
7576;DHT22;3829;50.798;4.358;2022-11-15T16:55:29;12.40;99.90
7576;DHT22;3829;50.798;4.358;2022-11-15T16:57:56;12.30;99.90
7576;DHT22;3829;50.798;4.358;2022-11-15T17:00:22;12.30;99.90
7576;DHT22;3829;50.798;4.358;2022-11-15T17:02:49;12.30;99.90
7576;DHT22;3829;50.798;4.358;2022-11-15T17:05:19;12.30;99.90
7576;DHT22;3829;50.798;4.358;2022-11-15T17:07:49;12.30;99.90
7576;DHT22;3829;50.798;4.358;2022-11-15T17:10:16;12.20;99.90
7576;DHT22;3829;50.798;4.358;2022-11-15T17:12:42;12.30;99.90
7576;DHT22;3829;50.798;4.358;2022-11-15T17:15:11;12.30;99.90
7576;DHT22;3829;50.798;4.358;2022-11-15T17:17:36;12.40;99.90
7576;DHT22;3829;50.798;4.358;2022-11-15T17:20:02;12.40;99.90
7576;DHT22;3829;50.798;4.358;2022-11-15T17:22:30;12.40;99.90
7576;DHT22;3829;50.798;4.358;2022-11-15T17:24:56;12.40;99.90
7576;DHT22;3829;50.798;4.358;2022-11-15T17:27:22;12.40;99.90
7576;DHT22;3829;50.798;4.358;2022-11-15T17:29:48;12.30;99.90
7576;DHT22;3829;50.798;4.358;2022-11-15T17:32:13;12.40;99.90
7576;DHT22;3829;50.798;4.358;2022-11-15T17:34:39;12.40;99.90
7576;DHT22;3829;50.798;4.358;2022-11-15T17:37:04;12.40;99.90
7576;DHT22;3829;50.798;4.358;2022-11-15T17:39:30;12.30;99.90
7576;DHT22;3829;50.798;4.358;2022-11-15T17:41:55;12.30;99.90
7576;DHT22;3829;50.798;4.358;2022-11-15T17:44:21;12.30;99.90
7576;DHT22;3829;50.798;4.358;2022-11-15T17:46:47;12.30;99.90
7576;DHT22;3829;50.798;4.358;2022-11-15T17:49:12;12.30;99.90
7576;DHT22;3829;50.798;4.358;2022-11-15T17:51:38;12.30;99.90
7576;DHT22;3829;50.798;4.358;2022-11-15T17:54:03;12.30;99.90
7576;DHT22;3829;50.798;4.358;2022-11-15T17:56:29;12.20;99.90
7576;DHT22;3829;50.798;4.358;2022-11-15T17:58:57;12.30;99.90
7576;DHT22;3829;50.798;4.358;2022-11-15T18:01:26;12.20;99.90
7576;DHT22;3829;50.798;4.358;2022-11-15T18:03:52;12.30;99.90
7576;DHT22;3829;50.798;4.358;2022-11-15T18:06:19;12.20;99.90
7576;DHT22;3829;50.798;4.358;2022-11-15T18:08:46;12.30;99.90
7576;DHT22;3829;50.798;4.358;2022-11-15T18:11:15;12.20;99.90
7576;DHT22;3829;50.798;4.358;2022-11-15T18:13:42;12.30;99.90
7576;DHT22;3829;50.798;4.358;2022-11-15T18:16:11;12.30;99.90
7576;DHT22;3829;50.798;4.358;2022-11-15T18:18:37;12.30;99.90
7576;DHT22;3829;50.798;4.358;2022-11-15T18:21:14;12.30;99.90